createdAt,value
2022-07-25T00:00:56.425Z,15.48
2022-07-25T00:03:28.530Z,15.61
2022-07-25T00:05:59.658Z,15.54
2022-07-25T00:08:30.737Z,15.45
2022-07-25T00:11:02.314Z,15.48
2022-07-25T00:13:33.605Z,15.51
2022-07-25T00:16:05.510Z,15.60
2022-07-25T00:18:36.912Z,15.50
2022-07-25T00:21:08.679Z,15.48
2022-07-25T00:23:40.132Z,15.44
2022-07-25T00:26:13.034Z,15.45
2022-07-25T00:28:44.667Z,15.51
2022-07-25T00:31:16.040Z,15.38
2022-07-25T00:33:47.139Z,15.48
2022-07-25T00:36:18.592Z,15.48
2022-07-25T00:38:49.615Z,15.42
2022-07-25T00:41:20.999Z,15.39
2022-07-25T00:43:52.143Z,15.40
2022-07-25T00:46:23.493Z,15.31
2022-07-25T00:48:55.397Z,15.24
2022-07-25T00:51:27.675Z,15.27
2022-07-25T00:54:00.001Z,15.28
2022-07-25T00:56:32.007Z,15.16
2022-07-25T00:59:03.237Z,15.09
2022-07-25T01:01:36.235Z,15.10
2022-07-25T01:04:08.741Z,15.09
2022-07-25T01:06:40.250Z,15.10
2022-07-25T01:09:12.503Z,15.11
2022-07-25T01:11:45.281Z,15.20
2022-07-25T01:14:16.440Z,15.16
2022-07-25T01:16:48.132Z,15.13
2022-07-25T01:19:20.516Z,15.13
2022-07-25T01:21:51.769Z,15.08
2022-07-25T01:24:22.761Z,15.00
2022-07-25T01:26:54.044Z,14.99
2022-07-25T01:29:25.573Z,15.04
2022-07-25T01:31:56.805Z,15.05
2022-07-25T01:34:29.056Z,14.93
2022-07-25T01:37:00.182Z,14.92
2022-07-25T01:39:31.501Z,14.90
2022-07-25T01:42:02.715Z,14.85
2022-07-25T01:44:34.114Z,14.87
2022-07-25T01:47:05.544Z,14.81
2022-07-25T01:49:38.825Z,14.79
2022-07-25T01:52:10.345Z,14.88
2022-07-25T01:54:43.476Z,14.96
2022-07-25T01:57:16.166Z,14.83
2022-07-25T01:59:47.911Z,14.77
2022-07-25T02:02:21.098Z,14.81
2022-07-25T02:04:52.745Z,14.72
2022-07-25T02:07:24.014Z,14.72
2022-07-25T02:09:57.019Z,14.79
2022-07-25T02:12:29.527Z,14.86
2022-07-25T02:15:03.035Z,14.86
2022-07-25T02:17:34.485Z,14.85
2022-07-25T02:20:07.409Z,14.72
2022-07-25T02:22:38.528Z,14.70
2022-07-25T02:25:10.309Z,14.73
2022-07-25T02:27:41.646Z,14.66
2022-07-25T02:30:13.295Z,14.62
2022-07-25T02:32:44.539Z,14.59
2022-07-25T02:35:17.150Z,14.70
2022-07-25T02:37:48.916Z,14.73
2022-07-25T02:40:20.685Z,14.81
2022-07-25T02:42:53.477Z,14.67
2022-07-25T02:45:24.788Z,14.64
2022-07-25T02:47:55.937Z,14.59
2022-07-25T02:50:28.186Z,14.67
2022-07-25T02:52:59.759Z,14.67
2022-07-25T02:55:32.389Z,14.68
2022-07-25T02:58:03.802Z,14.64
2022-07-25T03:00:35.314Z,14.60
2022-07-25T03:03:06.491Z,14.59
2022-07-25T03:05:39.553Z,14.69
2022-07-25T03:08:10.689Z,14.65
2022-07-25T03:10:41.664Z,14.66
2022-07-25T03:13:14.667Z,14.71
2022-07-25T03:15:45.866Z,14.65
2022-07-25T03:18:17.101Z,14.72
2022-07-25T03:20:50.913Z,14.66
2022-07-25T03:23:22.792Z,14.58
2022-07-25T03:25:54.199Z,14.68
2022-07-25T03:28:26.057Z,14.77
2022-07-25T03:30:57.053Z,14.71
2022-07-25T03:33:28.293Z,14.61
2022-07-25T03:35:59.635Z,14.26
2022-07-25T03:38:30.709Z,14.40
2022-07-25T03:41:01.834Z,14.71
2022-07-25T03:43:33.384Z,14.90
2022-07-25T03:46:06.982Z,14.98
2022-07-25T03:48:38.238Z,14.95
2022-07-25T03:51:09.740Z,15.09
2022-07-25T03:53:54.211Z,15.13
2022-07-25T03:56:26.351Z,15.21
2022-07-25T03:58:57.403Z,15.28
2022-07-25T04:01:28.883Z,15.35
2022-07-25T04:04:00.486Z,15.42
2022-07-25T04:06:33.389Z,15.51
2022-07-25T04:09:04.985Z,15.55
2022-07-25T04:11:36.632Z,15.53
2022-07-25T04:14:08.742Z,15.49
2022-07-25T04:16:40.707Z,15.67
2022-07-25T04:19:11.797Z,15.81
2022-07-25T04:21:43.419Z,15.91
2022-07-25T04:24:14.379Z,15.83
2022-07-25T04:26:45.645Z,15.82
2022-07-25T04:29:16.650Z,15.94
2022-07-25T04:31:49.416Z,15.95
2022-07-25T04:34:20.783Z,16.19
2022-07-25T04:36:53.253Z,16.36
2022-07-25T04:39:24.411Z,16.45
2022-07-25T04:41:55.858Z,16.75
2022-07-25T04:44:27.084Z,16.66
2022-07-25T04:46:58.312Z,16.88
2022-07-25T04:49:29.669Z,16.87
2022-07-25T04:52:00.878Z,17.06
2022-07-25T04:54:32.588Z,17.18
2022-07-25T04:57:05.455Z,17.25
2022-07-25T04:59:38.175Z,17.54
2022-07-25T05:02:10.555Z,17.74
2022-07-25T05:04:45.364Z,17.81
2022-07-25T05:07:14.853Z,17.99
2022-07-25T05:09:46.397Z,17.99
2022-07-25T05:12:19.122Z,18.21
2022-07-25T05:14:50.491Z,18.23
2022-07-25T05:17:21.615Z,17.98
2022-07-25T05:19:52.859Z,18.17
2022-07-25T05:22:28.322Z,18.39
2022-07-25T05:24:57.102Z,18.24
2022-07-25T05:27:28.737Z,18.51
2022-07-25T05:30:00.371Z,18.83
2022-07-25T05:32:31.705Z,19.03
2022-07-25T05:35:03.021Z,19.15
2022-07-25T05:37:33.954Z,19.23
2022-07-25T05:40:07.223Z,19.29
2022-07-25T05:42:40.090Z,19.25
2022-07-25T05:45:11.919Z,19.37
2022-07-25T05:47:43.179Z,19.41
2022-07-25T05:50:14.173Z,19.64
2022-07-25T05:52:45.465Z,19.59
2022-07-25T05:55:18.146Z,19.79
2022-07-25T05:57:49.435Z,19.94
2022-07-25T06:00:20.772Z,20.06
2022-07-25T06:02:52.231Z,20.21
2022-07-25T06:05:23.404Z,20.15
2022-07-25T06:07:54.578Z,20.30
2022-07-25T06:10:26.402Z,19.83
2022-07-25T06:12:57.851Z,20.09
2022-07-25T06:15:29.026Z,20.31
2022-07-25T06:18:00.190Z,20.31
2022-07-25T06:20:31.714Z,20.22
2022-07-25T06:23:04.375Z,20.68
2022-07-25T06:25:36.688Z,20.72
2022-07-25T06:28:08.376Z,20.77
2022-07-25T06:30:41.655Z,20.70
2022-07-25T06:33:13.759Z,21.01
2022-07-25T06:35:44.889Z,21.28
2022-07-25T06:38:17.506Z,21.19
2022-07-25T06:40:48.872Z,21.41
2022-07-25T06:43:20.013Z,21.71
2022-07-25T06:45:51.436Z,21.64
2022-07-25T06:48:24.141Z,21.51
2022-07-25T06:51:04.023Z,21.94
2022-07-25T06:53:38.208Z,22.17
2022-07-25T06:56:11.320Z,22.32
2022-07-25T06:58:43.066Z,22.38
2022-07-25T07:01:14.618Z,22.55
2022-07-25T07:03:46.173Z,22.71
2022-07-25T07:06:17.862Z,22.81
2022-07-25T07:08:49.145Z,22.62
2022-07-25T07:11:20.243Z,23.04
2022-07-25T07:13:52.963Z,22.81
2022-07-25T07:16:24.107Z,23.18
2022-07-25T07:18:58.481Z,23.42
2022-07-25T07:21:31.357Z,23.56
2022-07-25T07:24:03.937Z,23.87
2022-07-25T07:26:53.937Z,23.50
2022-07-25T07:29:26.765Z,23.79
2022-07-25T07:32:09.478Z,23.96
2022-07-25T07:37:42.953Z,24.46
2022-07-25T07:40:17.172Z,24.18
2022-07-25T07:42:45.633Z,24.48
2022-07-25T07:45:26.404Z,24.40
2022-07-25T07:47:57.774Z,24.38
2022-07-25T07:50:29.918Z,24.52
2022-07-25T07:53:02.809Z,24.63
2022-07-25T07:55:48.150Z,24.30
2022-07-25T07:58:20.905Z,24.66
2022-07-25T08:00:52.572Z,24.78
2022-07-25T08:03:25.346Z,24.76
2022-07-25T08:05:56.750Z,25.08
2022-07-25T08:08:31.372Z,25.27
2022-07-25T08:11:02.301Z,25.18
2022-07-25T08:13:37.276Z,25.09
2022-07-25T08:16:09.005Z,25.22
2022-07-25T08:18:40.303Z,25.30
2022-07-25T08:21:13.090Z,25.38
2022-07-25T08:23:47.260Z,25.35
2022-07-25T08:26:18.500Z,25.78
2022-07-25T08:28:55.651Z,25.87
2022-07-25T08:31:22.529Z,25.86
2022-07-25T08:33:53.850Z,26.00
2022-07-25T08:36:24.987Z,26.28
2022-07-25T08:38:56.267Z,26.15
2022-07-25T08:41:27.712Z,26.30
2022-07-25T08:44:01.652Z,26.45
2022-07-25T08:46:33.096Z,26.15
2022-07-25T08:49:05.796Z,26.66
2022-07-25T08:51:36.973Z,26.58
2022-07-25T08:54:08.766Z,26.96
2022-07-25T08:56:40.537Z,26.71
2022-07-25T08:59:11.783Z,26.47
2022-07-25T09:01:45.601Z,26.55
2022-07-25T09:04:19.304Z,26.51
2022-07-25T09:06:54.020Z,26.64
2022-07-25T09:09:37.075Z,26.75
2022-07-25T09:12:11.916Z,26.81
2022-07-25T09:14:44.598Z,26.99
2022-07-25T09:17:22.693Z,26.69
2022-07-25T09:19:59.006Z,26.82
2022-07-25T09:22:33.476Z,26.91
2022-07-25T09:25:07.202Z,26.92
2022-07-25T09:27:38.371Z,26.98
2022-07-25T09:30:17.178Z,26.97
2022-07-25T09:32:49.864Z,27.27
2022-07-25T09:35:26.029Z,27.49
2022-07-25T09:38:16.156Z,27.42
2022-07-25T09:41:03.990Z,27.38
2022-07-25T09:43:43.734Z,27.63
2022-07-25T09:46:15.367Z,27.79
2022-07-25T09:48:48.056Z,27.75
2022-07-25T09:51:19.220Z,27.72
2022-07-25T09:53:50.525Z,28.02
2022-07-25T09:56:32.186Z,28.03
2022-07-25T09:59:05.372Z,28.26
2022-07-25T10:01:55.099Z,28.25
2022-07-25T10:04:35.113Z,28.00
2022-07-25T10:07:12.641Z,28.10
2022-07-25T10:09:52.684Z,28.06
2022-07-25T10:12:25.904Z,28.32
2022-07-25T10:15:13.187Z,28.63
2022-07-25T10:17:46.197Z,28.75
2022-07-25T10:20:23.744Z,28.85
2022-07-25T10:22:57.294Z,28.93
2022-07-25T10:25:28.917Z,28.75
2022-07-25T10:28:06.509Z,28.64
2022-07-25T10:30:41.397Z,28.83
2022-07-25T10:33:21.897Z,28.77
2022-07-25T10:35:53.374Z,28.90
2022-07-25T10:38:30.109Z,29.51
2022-07-25T10:41:03.866Z,29.40
2022-07-25T10:43:39.929Z,29.28
2022-07-25T10:46:16.673Z,29.54
2022-07-25T10:48:50.187Z,29.15
2022-07-25T10:51:24.161Z,29.62
2022-07-25T10:53:55.675Z,29.71
2022-07-25T10:56:29.895Z,29.39
2022-07-25T10:59:03.571Z,29.84
2022-07-25T11:01:40.031Z,29.84
2022-07-25T11:04:18.726Z,29.88
2022-07-25T11:06:49.977Z,29.64
2022-07-25T11:09:28.286Z,29.83
2022-07-25T11:12:00.876Z,29.98
2022-07-25T11:14:42.285Z,30.36
2022-07-25T11:17:21.238Z,30.63
2022-07-25T11:20:04.381Z,30.47
2022-07-25T11:22:38.068Z,30.31
2022-07-25T11:25:16.010Z,30.32
2022-07-25T11:27:49.077Z,30.85
2022-07-25T11:30:21.348Z,31.02
2022-07-25T11:32:55.202Z,31.03
2022-07-25T11:35:33.067Z,30.78
2022-07-25T11:38:04.825Z,30.84
2022-07-25T11:40:40.308Z,31.11
2022-07-25T11:43:14.548Z,31.02
2022-07-25T11:45:45.647Z,31.08
2022-07-25T11:48:17.232Z,31.08
2022-07-25T11:50:48.731Z,30.87
2022-07-25T11:53:20.350Z,31.17
2022-07-25T11:55:51.941Z,31.39
2022-07-25T11:58:25.020Z,31.44
2022-07-25T12:00:56.440Z,31.06
2022-07-25T12:03:27.848Z,31.41
2022-07-25T12:06:27.182Z,31.27
2022-07-25T12:09:19.405Z,31.23
2022-07-25T12:12:03.697Z,31.17
2022-07-25T12:14:57.218Z,31.42
2022-07-25T12:17:28.488Z,31.80
2022-07-25T12:19:59.673Z,31.47
2022-07-25T12:22:32.476Z,31.79
2022-07-25T12:25:05.267Z,31.87
2022-07-25T12:27:36.607Z,31.94
2022-07-25T12:30:09.798Z,31.51
2022-07-25T12:32:41.333Z,31.73
2022-07-25T12:35:14.828Z,31.92
2022-07-25T12:37:46.195Z,31.98
2022-07-25T12:40:18.158Z,32.40
2022-07-25T12:42:50.285Z,32.48
2022-07-25T12:45:22.257Z,32.44
2022-07-25T12:47:56.670Z,32.76
2022-07-25T12:50:30.039Z,32.45
2022-07-25T12:53:01.224Z,32.21
2022-07-25T12:55:32.807Z,32.05
2022-07-25T12:58:04.682Z,32.22
2022-07-25T13:00:36.156Z,32.24
2022-07-25T13:03:17.505Z,32.35
2022-07-25T13:05:53.662Z,32.10
2022-07-25T13:08:24.728Z,32.34
2022-07-25T13:10:57.461Z,32.08
2022-07-25T13:13:29.167Z,32.11
2022-07-25T13:16:02.636Z,32.33
2022-07-25T13:18:36.265Z,32.20
2022-07-25T13:21:08.547Z,32.00
2022-07-25T13:23:39.994Z,32.07
2022-07-25T13:26:12.093Z,31.95
2022-07-25T13:28:43.099Z,32.41
2022-07-25T13:31:14.551Z,32.65
2022-07-25T13:33:55.104Z,32.54
2022-07-25T13:36:29.982Z,32.35
2022-07-25T13:39:08.434Z,32.67
2022-07-25T13:41:51.846Z,33.00
2022-07-25T13:44:27.858Z,32.53
2022-07-25T13:47:09.986Z,32.56
2022-07-25T13:49:41.794Z,32.10
2022-07-25T13:52:14.359Z,32.04
2022-07-25T13:54:47.265Z,32.05
2022-07-25T13:57:25.896Z,32.23
2022-07-25T13:59:59.201Z,31.88
2022-07-25T14:02:31.602Z,32.09
2022-07-25T14:05:04.331Z,32.16
2022-07-25T14:07:37.259Z,31.71
2022-07-25T14:10:09.583Z,31.69
2022-07-25T14:12:41.166Z,31.77
2022-07-25T14:15:13.017Z,31.78
2022-07-25T14:17:44.300Z,32.04
2022-07-25T14:20:15.498Z,31.92
2022-07-25T14:22:46.743Z,31.65
2022-07-25T14:25:18.311Z,31.74
2022-07-25T14:27:49.697Z,31.71
2022-07-25T14:30:20.997Z,31.76
2022-07-25T14:32:52.249Z,31.85
2022-07-25T14:35:26.393Z,31.82
2022-07-25T14:38:27.012Z,31.59
2022-07-25T14:40:58.950Z,31.56
2022-07-25T14:43:30.389Z,31.44
2022-07-25T14:46:01.390Z,31.46
2022-07-25T14:48:33.134Z,31.56
2022-07-25T14:51:04.612Z,31.69
2022-07-25T14:53:36.944Z,31.58
2022-07-25T14:56:08.895Z,31.68
2022-07-25T14:58:41.036Z,31.71
2022-07-25T15:01:12.549Z,31.77
2022-07-25T15:03:43.979Z,31.60
2022-07-25T15:06:15.348Z,31.64
2022-07-25T15:08:46.907Z,31.58
2022-07-25T15:11:18.301Z,31.22
2022-07-25T15:13:50.054Z,31.50
2022-07-25T15:16:21.585Z,31.53
2022-07-25T15:19:15.031Z,31.36
2022-07-25T15:21:26.044Z,31.16
2022-07-25T15:23:57.937Z,31.46
2022-07-25T15:26:29.355Z,31.25
2022-07-25T15:29:00.615Z,31.57
2022-07-25T15:31:32.080Z,31.66
2022-07-25T15:34:03.605Z,30.82
2022-07-25T15:36:35.350Z,31.02
2022-07-25T15:39:07.019Z,31.36
2022-07-25T15:41:38.770Z,31.48
2022-07-25T15:44:09.987Z,31.11
2022-07-25T15:46:41.812Z,31.22
2022-07-25T15:49:13.664Z,31.18
2022-07-25T15:51:45.114Z,31.03
2022-07-25T15:54:17.716Z,31.30
2022-07-25T15:56:49.216Z,31.48
2022-07-25T15:59:20.562Z,31.26
2022-07-25T16:01:51.971Z,30.96
2022-07-25T16:04:23.600Z,31.00
2022-07-25T16:06:55.077Z,30.84
2022-07-25T16:09:26.271Z,30.98
2022-07-25T16:11:57.755Z,30.74
2022-07-25T16:14:29.111Z,30.77
2022-07-25T16:17:01.455Z,30.72
2022-07-25T16:19:34.313Z,30.64
2022-07-25T16:22:05.737Z,30.75
2022-07-25T16:24:38.181Z,30.55
2022-07-25T16:27:10.746Z,30.48
2022-07-25T16:29:42.065Z,30.54
2022-07-25T16:32:13.682Z,30.18
2022-07-25T16:34:45.524Z,30.39
2022-07-25T16:37:18.180Z,30.48
2022-07-25T16:39:49.755Z,30.20
2022-07-25T16:42:21.188Z,30.29
2022-07-25T16:44:52.721Z,30.45
2022-07-25T16:47:24.073Z,30.27
2022-07-25T16:49:55.391Z,30.33
2022-07-25T16:52:26.931Z,30.36
2022-07-25T16:55:00.123Z,30.28
2022-07-25T16:57:31.252Z,30.46
2022-07-25T17:00:02.741Z,30.26
2022-07-25T17:02:34.092Z,30.28
2022-07-25T17:05:05.831Z,30.20
2022-07-25T17:07:38.540Z,30.05
2022-07-25T17:10:10.498Z,30.03
2022-07-25T17:12:43.108Z,29.85
2022-07-25T17:15:14.451Z,29.83
2022-07-25T17:17:45.692Z,29.86
2022-07-25T17:20:18.624Z,29.75
2022-07-25T17:22:49.800Z,29.84
2022-07-25T17:25:21.538Z,29.84
2022-07-25T17:28:00.366Z,29.69
2022-07-25T17:30:31.471Z,29.87
2022-07-25T17:33:02.774Z,29.88
2022-07-25T17:35:34.421Z,29.68
2022-07-25T17:38:05.730Z,29.71
2022-07-25T17:40:37.425Z,29.67
2022-07-25T17:43:08.382Z,29.66
2022-07-25T17:45:39.933Z,29.64
2022-07-25T17:48:12.643Z,29.48
2022-07-25T17:50:46.261Z,29.62
2022-07-25T17:53:18.803Z,29.51
2022-07-25T17:55:54.939Z,29.52
2022-07-25T17:58:26.283Z,29.28
2022-07-25T18:01:01.418Z,29.34
2022-07-25T18:03:31.883Z,29.31
2022-07-25T18:06:03.444Z,29.25
2022-07-25T18:08:36.586Z,29.16
2022-07-25T18:11:08.032Z,29.13
2022-07-25T18:13:39.144Z,29.07
2022-07-25T18:16:11.332Z,28.76
2022-07-25T18:18:42.647Z,28.39
2022-07-25T18:21:13.939Z,28.43
2022-07-25T18:23:47.305Z,28.30
2022-07-25T18:26:27.191Z,28.21
2022-07-25T18:29:11.544Z,27.80
2022-07-25T18:31:43.083Z,27.93
2022-07-25T18:34:14.481Z,27.84
2022-07-25T18:36:45.577Z,27.92
2022-07-25T18:39:16.812Z,28.03
2022-07-25T18:41:48.131Z,27.68
2022-07-25T18:44:19.678Z,27.67
2022-07-25T18:46:51.091Z,27.72
2022-07-25T18:49:23.329Z,27.84
2022-07-25T18:51:54.921Z,27.78
2022-07-25T18:54:26.602Z,27.85
2022-07-25T18:56:57.874Z,27.81
2022-07-25T18:59:29.360Z,27.52
2022-07-25T19:02:02.512Z,27.08
2022-07-25T19:04:35.118Z,26.71
2022-07-25T19:07:06.499Z,26.65
2022-07-25T19:09:37.988Z,26.60
2022-07-25T19:12:10.074Z,26.33
2022-07-25T19:14:42.363Z,26.30
2022-07-25T19:17:14.440Z,26.48
2022-07-25T19:19:45.743Z,26.54
2022-07-25T19:22:16.948Z,26.04
2022-07-25T19:24:49.723Z,25.58
2022-07-25T19:27:24.596Z,25.20
2022-07-25T19:29:55.730Z,24.98
2022-07-25T19:32:27.427Z,24.82
2022-07-25T19:34:59.480Z,24.69
2022-07-25T19:37:31.199Z,24.65
2022-07-25T19:40:02.620Z,24.54
2022-07-25T19:42:34.277Z,24.44
2022-07-25T19:45:05.923Z,24.25
2022-07-25T19:47:37.451Z,24.40
2022-07-25T19:50:09.509Z,24.24
2022-07-25T19:52:42.460Z,24.24
2022-07-25T19:55:18.973Z,24.15
2022-07-25T19:57:53.540Z,24.12
2022-07-25T20:00:26.602Z,24.00
2022-07-25T20:02:58.374Z,23.91
2022-07-25T20:05:29.670Z,23.84
2022-07-25T20:08:00.570Z,23.66
2022-07-25T20:10:31.746Z,23.72
2022-07-25T20:13:03.451Z,23.98
2022-07-25T20:15:35.762Z,24.13
2022-07-25T20:18:08.547Z,24.17
2022-07-25T20:20:40.002Z,24.25
2022-07-25T20:23:12.131Z,24.28
2022-07-25T20:25:43.423Z,24.20
2022-07-25T20:28:14.992Z,24.21
2022-07-25T20:30:46.454Z,24.02
2022-07-25T20:33:17.837Z,24.21
2022-07-25T20:35:51.627Z,24.31
2022-07-25T20:38:23.661Z,24.25
2022-07-25T20:40:55.983Z,24.34
2022-07-25T20:43:27.760Z,24.31
2022-07-25T20:45:59.579Z,24.33
2022-07-25T20:48:32.488Z,24.34
2022-07-25T20:51:04.205Z,24.38
2022-07-25T20:53:36.128Z,24.11
2022-07-25T20:56:07.847Z,24.23
2022-07-25T20:58:39.640Z,24.29
2022-07-25T21:01:11.386Z,24.23
2022-07-25T21:03:42.974Z,24.29
2022-07-25T21:06:14.285Z,24.27
2022-07-25T21:08:46.992Z,24.28
2022-07-25T21:11:18.506Z,24.44
2022-07-25T21:13:49.787Z,24.35
2022-07-25T21:16:21.221Z,24.39
2022-07-25T21:18:52.544Z,24.36
2022-07-25T21:21:24.176Z,24.33
2022-07-25T21:23:55.819Z,24.21
2022-07-25T21:26:26.920Z,24.28
2022-07-25T21:28:58.409Z,24.27
2022-07-25T21:31:30.366Z,24.26
2022-07-25T21:34:03.110Z,24.09
2022-07-25T21:36:34.807Z,24.25
2022-07-25T21:39:06.650Z,24.17
2022-07-25T21:41:38.263Z,24.15
2022-07-25T21:44:09.636Z,24.02
2022-07-25T21:46:41.014Z,24.07
2022-07-25T21:49:41.037Z,24.13
2022-07-25T21:52:00.080Z,24.29
2022-07-25T21:54:30.952Z,24.17
2022-07-25T21:57:02.625Z,24.23
2022-07-25T21:59:33.983Z,24.05
2022-07-25T22:05:07.951Z,24.05
2022-07-25T22:07:39.194Z,23.96
2022-07-25T22:10:12.347Z,24.02
2022-07-25T22:12:44.144Z,24.02
2022-07-25T22:15:17.293Z,23.93
2022-07-25T22:17:50.187Z,23.99
2022-07-25T22:20:22.553Z,23.79
2022-07-25T22:22:53.980Z,23.84
2022-07-25T22:25:25.599Z,23.96
2022-07-25T22:27:57.865Z,23.87
2022-07-25T22:30:29.412Z,23.76
2022-07-25T22:33:01.339Z,23.93
2022-07-25T22:35:33.163Z,23.91
2022-07-25T22:38:04.857Z,23.74
2022-07-25T22:40:36.437Z,23.94
2022-07-25T22:43:07.822Z,23.84
2022-07-25T22:45:42.897Z,23.80
2022-07-25T22:48:11.959Z,23.81
2022-07-25T22:50:44.664Z,23.75
2022-07-25T22:53:16.549Z,23.74
2022-07-25T22:55:47.937Z,23.71
2022-07-25T22:58:19.894Z,23.69
2022-07-25T23:00:51.754Z,23.65
2022-07-25T23:03:23.787Z,23.45
2022-07-25T23:05:55.370Z,23.31
2022-07-25T23:08:29.205Z,23.47
2022-07-25T23:11:00.596Z,23.40
2022-07-25T23:13:33.314Z,23.37
2022-07-25T23:16:05.777Z,23.40
2022-07-25T23:18:40.574Z,23.28
2022-07-25T23:21:13.251Z,23.27
2022-07-25T23:23:44.864Z,23.26
2022-07-25T23:26:16.474Z,22.99
2022-07-25T23:28:48.543Z,23.02
2022-07-25T23:31:21.391Z,22.97
2022-07-25T23:33:53.030Z,22.96
2022-07-25T23:36:24.689Z,22.97
2022-07-25T23:38:56.389Z,22.78
2022-07-25T23:41:27.913Z,22.70
2022-07-25T23:44:00.624Z,22.59
2022-07-25T23:46:33.412Z,22.77
2022-07-25T23:49:07.816Z,22.57
2022-07-25T23:51:39.856Z,22.90
2022-07-25T23:54:11.181Z,22.68
2022-07-25T23:56:42.424Z,22.79
2022-07-25T23:59:13.717Z,22.84
